sensor_id;sensor_type;location;lat;lon;timestamp;P1;durP1;ratioP1;P2;durP2;ratioP2
37791;SDS011;29527;55.766;37.570;2024-03-02T00:02:01;51.97;;;30.27;;
37791;SDS011;29527;55.766;37.570;2024-03-02T00:04:26;52.00;;;31.70;;
37791;SDS011;29527;55.766;37.570;2024-03-02T00:06:54;56.55;;;31.98;;
37791;SDS011;29527;55.766;37.570;2024-03-02T00:09:20;55.85;;;32.45;;
37791;SDS011;29527;55.766;37.570;2024-03-02T00:11:45;60.70;;;33.28;;
37791;SDS011;29527;55.766;37.570;2024-03-02T00:14:11;62.97;;;34.95;;
37791;SDS011;29527;55.766;37.570;2024-03-02T00:16:36;70.20;;;33.75;;
37791;SDS011;29527;55.766;37.570;2024-03-02T00:19:05;64.13;;;33.90;;
37791;SDS011;29527;55.766;37.570;2024-03-02T00:21:31;63.83;;;34.38;;
37791;SDS011;29527;55.766;37.570;2024-03-02T00:23:56;63.15;;;34.28;;
37791;SDS011;29527;55.766;37.570;2024-03-02T00:26:22;59.63;;;33.67;;
37791;SDS011;29527;55.766;37.570;2024-03-02T00:28:47;67.05;;;35.22;;
37791;SDS011;29527;55.766;37.570;2024-03-02T00:31:19;60.70;;;33.63;;
37791;SDS011;29527;55.766;37.570;2024-03-02T00:33:45;66.70;;;34.08;;
37791;SDS011;29527;55.766;37.570;2024-03-02T00:36:29;58.67;;;33.97;;
37791;SDS011;29527;55.766;37.570;2024-03-02T00:38:54;63.88;;;34.85;;
37791;SDS011;29527;55.766;37.570;2024-03-02T00:41:24;58.65;;;32.95;;
37791;SDS011;29527;55.766;37.570;2024-03-02T00:46:18;62.05;;;33.47;;
37791;SDS011;29527;55.766;37.570;2024-03-02T00:51:20;59.65;;;32.72;;
37791;SDS011;29527;55.766;37.570;2024-03-02T00:53:46;63.97;;;33.30;;
37791;SDS011;29527;55.766;37.570;2024-03-02T00:56:11;63.67;;;33.70;;
37791;SDS011;29527;55.766;37.570;2024-03-02T00:58:40;59.88;;;33.22;;
37791;SDS011;29527;55.766;37.570;2024-03-02T01:01:05;64.88;;;31.85;;
37791;SDS011;29527;55.766;37.570;2024-03-02T01:03:32;61.88;;;33.92;;
37791;SDS011;29527;55.766;37.570;2024-03-02T01:05:57;56.88;;;32.70;;
37791;SDS011;29527;55.766;37.570;2024-03-02T01:08:23;67.88;;;34.35;;
37791;SDS011;29527;55.766;37.570;2024-03-02T01:10:48;62.90;;;33.33;;
37791;SDS011;29527;55.766;37.570;2024-03-02T01:13:14;62.03;;;32.17;;
37791;SDS011;29527;55.766;37.570;2024-03-02T01:15:39;57.22;;;34.00;;
37791;SDS011;29527;55.766;37.570;2024-03-02T01:18:04;60.88;;;33.20;;
37791;SDS011;29527;55.766;37.570;2024-03-02T01:20:30;64.38;;;33.53;;
37791;SDS011;29527;55.766;37.570;2024-03-02T01:22:55;59.08;;;33.38;;
37791;SDS011;29527;55.766;37.570;2024-03-02T01:25:20;60.60;;;33.08;;
37791;SDS011;29527;55.766;37.570;2024-03-02T01:27:46;61.97;;;33.33;;
37791;SDS011;29527;55.766;37.570;2024-03-02T01:30:11;55.17;;;31.58;;
37791;SDS011;29527;55.766;37.570;2024-03-02T01:32:37;56.63;;;32.80;;
37791;SDS011;29527;55.766;37.570;2024-03-02T01:35:03;55.00;;;32.30;;
37791;SDS011;29527;55.766;37.570;2024-03-02T01:37:29;55.55;;;31.80;;
37791;SDS011;29527;55.766;37.570;2024-03-02T01:39:54;60.60;;;31.90;;
37791;SDS011;29527;55.766;37.570;2024-03-02T01:42:19;55.83;;;31.40;;
37791;SDS011;29527;55.766;37.570;2024-03-02T01:44:45;59.45;;;31.10;;
37791;SDS011;29527;55.766;37.570;2024-03-02T01:47:10;55.97;;;32.13;;
37791;SDS011;29527;55.766;37.570;2024-03-02T01:49:35;57.30;;;32.33;;
37791;SDS011;29527;55.766;37.570;2024-03-02T01:52:01;56.80;;;33.05;;
37791;SDS011;29527;55.766;37.570;2024-03-02T01:54:27;60.85;;;31.58;;
37791;SDS011;29527;55.766;37.570;2024-03-02T01:56:52;57.92;;;31.00;;
37791;SDS011;29527;55.766;37.570;2024-03-02T01:59:18;57.78;;;31.67;;
37791;SDS011;29527;55.766;37.570;2024-03-02T02:01:43;65.97;;;33.03;;
37791;SDS011;29527;55.766;37.570;2024-03-02T02:04:08;60.53;;;32.35;;
37791;SDS011;29527;55.766;37.570;2024-03-02T02:06:33;59.72;;;31.30;;
37791;SDS011;29527;55.766;37.570;2024-03-02T02:08:59;54.63;;;29.88;;
37791;SDS011;29527;55.766;37.570;2024-03-02T02:11:24;55.67;;;30.75;;
37791;SDS011;29527;55.766;37.570;2024-03-02T02:13:50;63.30;;;30.85;;
37791;SDS011;29527;55.766;37.570;2024-03-02T02:16:15;54.95;;;31.25;;
37791;SDS011;29527;55.766;37.570;2024-03-02T02:18:40;58.72;;;31.05;;
37791;SDS011;29527;55.766;37.570;2024-03-02T02:21:06;56.63;;;31.50;;
37791;SDS011;29527;55.766;37.570;2024-03-02T02:23:31;62.55;;;32.58;;
37791;SDS011;29527;55.766;37.570;2024-03-02T02:25:56;58.15;;;32.33;;
37791;SDS011;29527;55.766;37.570;2024-03-02T02:28:22;56.05;;;31.15;;
37791;SDS011;29527;55.766;37.570;2024-03-02T02:30:47;54.63;;;30.63;;
37791;SDS011;29527;55.766;37.570;2024-03-02T02:33:12;63.95;;;33.35;;
37791;SDS011;29527;55.766;37.570;2024-03-02T02:35:37;58.13;;;33.90;;
37791;SDS011;29527;55.766;37.570;2024-03-02T02:38:03;59.13;;;32.92;;
37791;SDS011;29527;55.766;37.570;2024-03-02T02:40:28;67.55;;;34.20;;
37791;SDS011;29527;55.766;37.570;2024-03-02T02:42:57;60.22;;;32.03;;
37791;SDS011;29527;55.766;37.570;2024-03-02T02:45:22;60.47;;;33.25;;
37791;SDS011;29527;55.766;37.570;2024-03-02T02:47:48;66.60;;;34.13;;
37791;SDS011;29527;55.766;37.570;2024-03-02T02:50:13;63.63;;;35.15;;
37791;SDS011;29527;55.766;37.570;2024-03-02T02:52:39;61.40;;;34.63;;
37791;SDS011;29527;55.766;37.570;2024-03-02T02:55:06;66.90;;;34.33;;
37791;SDS011;29527;55.766;37.570;2024-03-02T02:57:32;63.08;;;34.85;;
37791;SDS011;29527;55.766;37.570;2024-03-02T03:00:04;55.97;;;33.30;;
37791;SDS011;29527;55.766;37.570;2024-03-02T03:02:34;58.30;;;32.55;;
37791;SDS011;29527;55.766;37.570;2024-03-02T03:04:59;58.33;;;31.90;;
37791;SDS011;29527;55.766;37.570;2024-03-02T03:07:25;59.22;;;34.25;;
37791;SDS011;29527;55.766;37.570;2024-03-02T03:09:50;57.47;;;32.92;;
37791;SDS011;29527;55.766;37.570;2024-03-02T03:12:16;61.17;;;34.38;;
37791;SDS011;29527;55.766;37.570;2024-03-02T03:14:41;62.40;;;33.60;;
37791;SDS011;29527;55.766;37.570;2024-03-02T03:17:06;63.30;;;35.25;;
37791;SDS011;29527;55.766;37.570;2024-03-02T03:19:33;59.70;;;34.40;;
37791;SDS011;29527;55.766;37.570;2024-03-02T03:21:58;64.22;;;34.30;;
37791;SDS011;29527;55.766;37.570;2024-03-02T03:24:23;67.75;;;36.20;;
37791;SDS011;29527;55.766;37.570;2024-03-02T03:26:49;65.65;;;35.85;;
37791;SDS011;29527;55.766;37.570;2024-03-02T03:29:14;62.67;;;35.75;;
37791;SDS011;29527;55.766;37.570;2024-03-02T03:31:39;64.00;;;36.00;;
37791;SDS011;29527;55.766;37.570;2024-03-02T03:34:05;62.88;;;37.47;;
37791;SDS011;29527;55.766;37.570;2024-03-02T03:36:30;64.63;;;38.13;;
37791;SDS011;29527;55.766;37.570;2024-03-02T03:38:55;73.22;;;38.40;;
37791;SDS011;29527;55.766;37.570;2024-03-02T03:41:20;73.55;;;38.92;;
37791;SDS011;29527;55.766;37.570;2024-03-02T03:43:46;71.22;;;37.17;;
37791;SDS011;29527;55.766;37.570;2024-03-02T03:46:11;68.35;;;36.97;;
37791;SDS011;29527;55.766;37.570;2024-03-02T03:48:36;69.38;;;39.90;;
37791;SDS011;29527;55.766;37.570;2024-03-02T03:51:02;74.68;;;39.75;;
37791;SDS011;29527;55.766;37.570;2024-03-02T03:53:27;67.95;;;39.22;;
37791;SDS011;29527;55.766;37.570;2024-03-02T03:55:53;67.43;;;38.78;;
37791;SDS011;29527;55.766;37.570;2024-03-02T03:58:18;68.13;;;38.45;;
37791;SDS011;29527;55.766;37.570;2024-03-02T04:00:45;69.35;;;39.85;;
37791;SDS011;29527;55.766;37.570;2024-03-02T04:03:11;66.80;;;38.83;;
37791;SDS011;29527;55.766;37.570;2024-03-02T04:05:36;69.90;;;38.53;;
37791;SDS011;29527;55.766;37.570;2024-03-02T04:08:01;67.93;;;38.95;;
37791;SDS011;29527;55.766;37.570;2024-03-02T04:10:26;66.57;;;38.92;;
37791;SDS011;29527;55.766;37.570;2024-03-02T04:12:52;75.22;;;39.40;;
37791;SDS011;29527;55.766;37.570;2024-03-02T04:15:17;73.35;;;39.38;;
37791;SDS011;29527;55.766;37.570;2024-03-02T04:17:43;70.72;;;41.30;;
37791;SDS011;29527;55.766;37.570;2024-03-02T04:20:09;76.50;;;41.58;;
37791;SDS011;29527;55.766;37.570;2024-03-02T04:22:34;73.85;;;41.40;;
37791;SDS011;29527;55.766;37.570;2024-03-02T04:25:00;75.03;;;39.15;;
37791;SDS011;29527;55.766;37.570;2024-03-02T04:27:26;71.40;;;41.25;;
37791;SDS011;29527;55.766;37.570;2024-03-02T04:29:51;73.85;;;41.92;;
37791;SDS011;29527;55.766;37.570;2024-03-02T04:32:16;72.85;;;41.38;;
37791;SDS011;29527;55.766;37.570;2024-03-02T04:34:42;78.25;;;41.13;;
37791;SDS011;29527;55.766;37.570;2024-03-02T04:37:07;76.88;;;43.55;;
37791;SDS011;29527;55.766;37.570;2024-03-02T04:39:34;79.43;;;43.92;;
37791;SDS011;29527;55.766;37.570;2024-03-02T04:41:59;73.78;;;43.72;;
37791;SDS011;29527;55.766;37.570;2024-03-02T04:44:24;75.60;;;43.38;;
37791;SDS011;29527;55.766;37.570;2024-03-02T04:46:50;68.18;;;39.38;;
37791;SDS011;29527;55.766;37.570;2024-03-02T04:49:15;79.35;;;42.50;;
37791;SDS011;29527;55.766;37.570;2024-03-02T04:51:41;74.18;;;42.78;;
37791;SDS011;29527;55.766;37.570;2024-03-02T04:54:06;71.55;;;40.17;;
37791;SDS011;29527;55.766;37.570;2024-03-02T04:56:31;74.60;;;43.15;;
37791;SDS011;29527;55.766;37.570;2024-03-02T04:58:56;78.53;;;43.75;;
37791;SDS011;29527;55.766;37.570;2024-03-02T05:01:22;78.28;;;45.25;;
37791;SDS011;29527;55.766;37.570;2024-03-02T05:03:47;79.55;;;43.88;;
37791;SDS011;29527;55.766;37.570;2024-03-02T05:06:12;80.00;;;44.13;;
37791;SDS011;29527;55.766;37.570;2024-03-02T05:08:38;79.32;;;44.80;;
37791;SDS011;29527;55.766;37.570;2024-03-02T05:11:03;76.22;;;44.20;;
37791;SDS011;29527;55.766;37.570;2024-03-02T05:13:54;81.03;;;45.85;;
37791;SDS011;29527;55.766;37.570;2024-03-02T05:16:20;80.63;;;44.40;;
37791;SDS011;29527;55.766;37.570;2024-03-02T05:18:45;83.13;;;46.97;;
37791;SDS011;29527;55.766;37.570;2024-03-02T05:21:10;84.32;;;50.00;;
37791;SDS011;29527;55.766;37.570;2024-03-02T05:23:36;84.15;;;50.85;;
37791;SDS011;29527;55.766;37.570;2024-03-02T05:26:02;90.65;;;52.67;;
37791;SDS011;29527;55.766;37.570;2024-03-02T05:28:27;97.18;;;56.17;;
37791;SDS011;29527;55.766;37.570;2024-03-02T05:30:53;96.55;;;57.35;;
37791;SDS011;29527;55.766;37.570;2024-03-02T05:33:18;87.65;;;53.42;;
37791;SDS011;29527;55.766;37.570;2024-03-02T05:35:47;95.13;;;55.72;;
37791;SDS011;29527;55.766;37.570;2024-03-02T05:38:12;102.72;;;61.20;;
37791;SDS011;29527;55.766;37.570;2024-03-02T05:40:38;96.45;;;59.20;;
37791;SDS011;29527;55.766;37.570;2024-03-02T05:43:03;106.88;;;64.47;;
37791;SDS011;29527;55.766;37.570;2024-03-02T05:45:28;108.80;;;63.75;;
37791;SDS011;29527;55.766;37.570;2024-03-02T05:47:54;106.47;;;64.35;;
37791;SDS011;29527;55.766;37.570;2024-03-02T05:50:19;101.05;;;63.70;;
37791;SDS011;29527;55.766;37.570;2024-03-02T05:52:45;106.13;;;67.57;;
37791;SDS011;29527;55.766;37.570;2024-03-02T05:55:10;124.95;;;80.55;;
37791;SDS011;29527;55.766;37.570;2024-03-02T05:57:35;128.32;;;78.72;;
37791;SDS011;29527;55.766;37.570;2024-03-02T06:00:14;123.78;;;80.97;;
37791;SDS011;29527;55.766;37.570;2024-03-02T06:02:42;126.25;;;81.07;;
37791;SDS011;29527;55.766;37.570;2024-03-02T06:05:07;132.40;;;82.68;;
37791;SDS011;29527;55.766;37.570;2024-03-02T06:07:32;123.10;;;79.50;;
37791;SDS011;29527;55.766;37.570;2024-03-02T06:09:58;117.07;;;74.75;;
37791;SDS011;29527;55.766;37.570;2024-03-02T06:12:23;121.28;;;75.30;;
37791;SDS011;29527;55.766;37.570;2024-03-02T06:14:48;122.85;;;73.80;;
37791;SDS011;29527;55.766;37.570;2024-03-02T06:17:14;115.93;;;69.18;;
37791;SDS011;29527;55.766;37.570;2024-03-02T06:19:39;116.78;;;69.55;;
37791;SDS011;29527;55.766;37.570;2024-03-02T06:22:04;118.82;;;69.78;;
37791;SDS011;29527;55.766;37.570;2024-03-02T06:24:30;124.05;;;72.82;;
37791;SDS011;29527;55.766;37.570;2024-03-02T06:26:56;118.57;;;73.30;;
37791;SDS011;29527;55.766;37.570;2024-03-02T06:29:21;116.80;;;71.03;;
37791;SDS011;29527;55.766;37.570;2024-03-02T06:31:47;124.00;;;74.72;;
37791;SDS011;29527;55.766;37.570;2024-03-02T06:34:12;119.25;;;72.07;;
37791;SDS011;29527;55.766;37.570;2024-03-02T06:36:38;124.97;;;73.93;;
37791;SDS011;29527;55.766;37.570;2024-03-02T06:39:03;116.88;;;70.10;;
37791;SDS011;29527;55.766;37.570;2024-03-02T06:41:29;123.13;;;73.82;;
37791;SDS011;29527;55.766;37.570;2024-03-02T06:43:54;116.32;;;71.85;;
37791;SDS011;29527;55.766;37.570;2024-03-02T06:46:24;124.03;;;73.15;;
37791;SDS011;29527;55.766;37.570;2024-03-02T06:48:50;118.85;;;71.03;;
37791;SDS011;29527;55.766;37.570;2024-03-02T06:51:15;129.13;;;73.13;;
37791;SDS011;29527;55.766;37.570;2024-03-02T06:53:41;118.45;;;71.82;;
37791;SDS011;29527;55.766;37.570;2024-03-02T06:56:07;117.55;;;68.47;;
37791;SDS011;29527;55.766;37.570;2024-03-02T06:58:33;122.57;;;71.00;;
37791;SDS011;29527;55.766;37.570;2024-03-02T07:00:58;115.43;;;68.07;;
37791;SDS011;29527;55.766;37.570;2024-03-02T07:03:25;121.80;;;68.10;;
37791;SDS011;29527;55.766;37.570;2024-03-02T07:05:51;112.22;;;67.35;;
37791;SDS011;29527;55.766;37.570;2024-03-02T07:08:16;112.88;;;66.95;;
37791;SDS011;29527;55.766;37.570;2024-03-02T07:10:41;110.22;;;67.47;;
37791;SDS011;29527;55.766;37.570;2024-03-02T07:13:06;117.57;;;68.13;;
37791;SDS011;29527;55.766;37.570;2024-03-02T07:15:32;109.15;;;63.33;;
37791;SDS011;29527;55.766;37.570;2024-03-02T07:18:12;113.28;;;63.67;;
37791;SDS011;29527;55.766;37.570;2024-03-02T07:20:37;103.22;;;58.78;;
37791;SDS011;29527;55.766;37.570;2024-03-02T07:23:04;104.75;;;60.28;;
37791;SDS011;29527;55.766;37.570;2024-03-02T07:25:29;99.38;;;56.30;;
37791;SDS011;29527;55.766;37.570;2024-03-02T07:27:54;99.57;;;59.13;;
37791;SDS011;29527;55.766;37.570;2024-03-02T07:30:20;101.97;;;59.67;;
37791;SDS011;29527;55.766;37.570;2024-03-02T07:32:45;103.93;;;60.55;;
37791;SDS011;29527;55.766;37.570;2024-03-02T07:35:12;103.68;;;61.42;;
37791;SDS011;29527;55.766;37.570;2024-03-02T07:37:37;97.30;;;55.33;;
37791;SDS011;29527;55.766;37.570;2024-03-02T07:40:02;100.47;;;56.85;;
37791;SDS011;29527;55.766;37.570;2024-03-02T07:42:28;101.43;;;56.20;;
37791;SDS011;29527;55.766;37.570;2024-03-02T07:44:54;94.25;;;54.15;;
37791;SDS011;29527;55.766;37.570;2024-03-02T07:47:19;100.22;;;56.95;;
37791;SDS011;29527;55.766;37.570;2024-03-02T07:49:45;86.47;;;52.97;;
37791;SDS011;29527;55.766;37.570;2024-03-02T07:52:11;95.20;;;55.25;;
37791;SDS011;29527;55.766;37.570;2024-03-02T07:54:36;93.25;;;55.15;;
37791;SDS011;29527;55.766;37.570;2024-03-02T07:57:02;94.32;;;55.88;;
37791;SDS011;29527;55.766;37.570;2024-03-02T07:59:27;92.65;;;54.05;;
37791;SDS011;29527;55.766;37.570;2024-03-02T08:01:52;93.38;;;55.35;;
37791;SDS011;29527;55.766;37.570;2024-03-02T08:04:20;90.78;;;54.13;;
37791;SDS011;29527;55.766;37.570;2024-03-02T08:06:45;89.47;;;52.03;;
37791;SDS011;29527;55.766;37.570;2024-03-02T08:09:10;81.80;;;47.20;;
37791;SDS011;29527;55.766;37.570;2024-03-02T08:11:36;87.03;;;51.70;;
37791;SDS011;29527;55.766;37.570;2024-03-02T08:14:02;88.75;;;51.15;;
37791;SDS011;29527;55.766;37.570;2024-03-02T08:16:28;85.97;;;52.13;;
37791;SDS011;29527;55.766;37.570;2024-03-02T08:18:53;85.60;;;51.03;;
37791;SDS011;29527;55.766;37.570;2024-03-02T08:21:19;83.35;;;51.63;;
37791;SDS011;29527;55.766;37.570;2024-03-02T08:23:44;84.70;;;51.38;;
37791;SDS011;29527;55.766;37.570;2024-03-02T08:26:10;86.75;;;51.47;;
37791;SDS011;29527;55.766;37.570;2024-03-02T08:28:36;81.97;;;50.42;;
37791;SDS011;29527;55.766;37.570;2024-03-02T08:31:07;80.75;;;48.17;;
37791;SDS011;29527;55.766;37.570;2024-03-02T08:33:33;87.70;;;51.55;;
37791;SDS011;29527;55.766;37.570;2024-03-02T08:35:58;83.93;;;49.75;;
37791;SDS011;29527;55.766;37.570;2024-03-02T08:38:24;84.22;;;50.00;;
37791;SDS011;29527;55.766;37.570;2024-03-02T08:40:49;82.78;;;47.67;;
37791;SDS011;29527;55.766;37.570;2024-03-02T08:43:15;87.25;;;50.72;;
37791;SDS011;29527;55.766;37.570;2024-03-02T08:45:40;83.28;;;49.83;;
37791;SDS011;29527;55.766;37.570;2024-03-02T08:48:07;75.85;;;45.80;;
37791;SDS011;29527;55.766;37.570;2024-03-02T08:50:33;83.38;;;48.65;;
37791;SDS011;29527;55.766;37.570;2024-03-02T08:52:59;77.60;;;46.20;;
37791;SDS011;29527;55.766;37.570;2024-03-02T08:55:24;81.50;;;50.35;;
37791;SDS011;29527;55.766;37.570;2024-03-02T08:57:49;82.82;;;50.50;;
37791;SDS011;29527;55.766;37.570;2024-03-02T09:00:15;80.15;;;48.10;;
37791;SDS011;29527;55.766;37.570;2024-03-02T09:02:43;88.25;;;50.95;;
37791;SDS011;29527;55.766;37.570;2024-03-02T09:05:08;77.35;;;48.80;;
37791;SDS011;29527;55.766;37.570;2024-03-02T09:07:33;89.93;;;53.83;;
37791;SDS011;29527;55.766;37.570;2024-03-02T09:09:59;87.53;;;52.00;;
37791;SDS011;29527;55.766;37.570;2024-03-02T09:12:24;90.20;;;55.70;;
37791;SDS011;29527;55.766;37.570;2024-03-02T09:14:49;90.85;;;54.88;;
37791;SDS011;29527;55.766;37.570;2024-03-02T09:17:15;84.82;;;53.85;;
37791;SDS011;29527;55.766;37.570;2024-03-02T09:19:40;80.78;;;50.08;;
37791;SDS011;29527;55.766;37.570;2024-03-02T09:22:05;79.63;;;51.08;;
37791;SDS011;29527;55.766;37.570;2024-03-02T09:24:31;83.10;;;50.63;;
37791;SDS011;29527;55.766;37.570;2024-03-02T09:26:56;82.53;;;49.92;;
37791;SDS011;29527;55.766;37.570;2024-03-02T09:29:22;79.57;;;51.10;;
37791;SDS011;29527;55.766;37.570;2024-03-02T09:31:47;86.78;;;52.58;;
37791;SDS011;29527;55.766;37.570;2024-03-02T09:34:12;82.93;;;49.30;;
37791;SDS011;29527;55.766;37.570;2024-03-02T09:36:39;84.90;;;49.40;;
37791;SDS011;29527;55.766;37.570;2024-03-02T09:39:04;77.07;;;45.95;;
37791;SDS011;29527;55.766;37.570;2024-03-02T09:41:30;85.20;;;48.90;;
37791;SDS011;29527;55.766;37.570;2024-03-02T09:43:55;76.13;;;42.92;;
37791;SDS011;29527;55.766;37.570;2024-03-02T09:46:20;74.50;;;45.28;;
37791;SDS011;29527;55.766;37.570;2024-03-02T09:48:45;73.85;;;43.33;;
37791;SDS011;29527;55.766;37.570;2024-03-02T09:51:11;70.90;;;40.72;;
37791;SDS011;29527;55.766;37.570;2024-03-02T09:53:37;72.30;;;41.67;;
37791;SDS011;29527;55.766;37.570;2024-03-02T09:56:03;71.38;;;38.75;;
37791;SDS011;29527;55.766;37.570;2024-03-02T09:58:29;72.63;;;42.28;;
37791;SDS011;29527;55.766;37.570;2024-03-02T10:00:55;75.18;;;40.42;;
37791;SDS011;29527;55.766;37.570;2024-03-02T10:03:20;72.75;;;41.40;;
37791;SDS011;29527;55.766;37.570;2024-03-02T10:05:46;68.45;;;39.35;;
37791;SDS011;29527;55.766;37.570;2024-03-02T10:08:12;70.50;;;42.17;;
37791;SDS011;29527;55.766;37.570;2024-03-02T10:10:38;70.55;;;39.15;;
37791;SDS011;29527;55.766;37.570;2024-03-02T10:13:07;70.10;;;40.40;;
37791;SDS011;29527;55.766;37.570;2024-03-02T10:15:33;65.38;;;38.15;;
37791;SDS011;29527;55.766;37.570;2024-03-02T10:17:58;59.95;;;38.03;;
37791;SDS011;29527;55.766;37.570;2024-03-02T10:20:24;68.38;;;39.25;;
37791;SDS011;29527;55.766;37.570;2024-03-02T10:22:50;63.33;;;38.03;;
37791;SDS011;29527;55.766;37.570;2024-03-02T10:25:28;62.75;;;36.20;;
37791;SDS011;29527;55.766;37.570;2024-03-02T10:27:53;62.42;;;37.97;;
37791;SDS011;29527;55.766;37.570;2024-03-02T10:30:21;66.63;;;39.45;;
37791;SDS011;29527;55.766;37.570;2024-03-02T10:32:48;68.57;;;41.08;;
37791;SDS011;29527;55.766;37.570;2024-03-02T10:35:14;67.85;;;42.17;;
37791;SDS011;29527;55.766;37.570;2024-03-02T10:37:40;75.07;;;41.92;;
37791;SDS011;29527;55.766;37.570;2024-03-02T10:40:06;69.60;;;41.38;;
37791;SDS011;29527;55.766;37.570;2024-03-02T10:42:33;64.82;;;39.28;;
37791;SDS011;29527;55.766;37.570;2024-03-02T10:44:59;69.75;;;40.28;;
37791;SDS011;29527;55.766;37.570;2024-03-02T10:47:24;66.13;;;40.15;;
37791;SDS011;29527;55.766;37.570;2024-03-02T10:49:52;64.35;;;39.58;;
37791;SDS011;29527;55.766;37.570;2024-03-02T10:52:17;69.25;;;40.90;;
37791;SDS011;29527;55.766;37.570;2024-03-02T10:54:43;66.60;;;41.13;;
37791;SDS011;29527;55.766;37.570;2024-03-02T10:57:08;70.72;;;41.50;;
37791;SDS011;29527;55.766;37.570;2024-03-02T10:59:36;80.50;;;42.40;;
37791;SDS011;29527;55.766;37.570;2024-03-02T11:02:04;71.35;;;41.10;;
37791;SDS011;29527;55.766;37.570;2024-03-02T11:04:32;69.63;;;42.17;;
37791;SDS011;29527;55.766;37.570;2024-03-02T11:07:07;70.97;;;39.80;;
37791;SDS011;29527;55.766;37.570;2024-03-02T11:09:35;72.47;;;42.05;;
37791;SDS011;29527;55.766;37.570;2024-03-02T11:15:03;70.70;;;41.60;;
37791;SDS011;29527;55.766;37.570;2024-03-02T11:17:29;74.60;;;44.42;;
37791;SDS011;29527;55.766;37.570;2024-03-02T11:19:55;73.05;;;42.45;;
37791;SDS011;29527;55.766;37.570;2024-03-02T11:22:21;77.97;;;43.05;;
37791;SDS011;29527;55.766;37.570;2024-03-02T11:24:50;72.32;;;42.00;;
37791;SDS011;29527;55.766;37.570;2024-03-02T11:27:58;70.07;;;42.03;;
37791;SDS011;29527;55.766;37.570;2024-03-02T11:30:01;70.80;;;40.50;;
37791;SDS011;29527;55.766;37.570;2024-03-02T11:32:27;73.40;;;42.72;;
37791;SDS011;29527;55.766;37.570;2024-03-02T11:34:52;72.60;;;42.35;;
37791;SDS011;29527;55.766;37.570;2024-03-02T11:37:18;71.38;;;40.97;;
37791;SDS011;29527;55.766;37.570;2024-03-02T11:39:44;72.15;;;41.67;;
37791;SDS011;29527;55.766;37.570;2024-03-02T11:42:10;65.72;;;41.42;;
37791;SDS011;29527;55.766;37.570;2024-03-02T11:44:36;63.95;;;39.45;;
37791;SDS011;29527;55.766;37.570;2024-03-02T11:47:03;74.07;;;44.20;;
37791;SDS011;29527;55.766;37.570;2024-03-02T11:49:48;75.63;;;43.92;;
37791;SDS011;29527;55.766;37.570;2024-03-02T11:52:15;70.68;;;41.90;;
37791;SDS011;29527;55.766;37.570;2024-03-02T11:54:43;72.43;;;42.83;;
37791;SDS011;29527;55.766;37.570;2024-03-02T11:57:12;72.57;;;41.53;;
37791;SDS011;29527;55.766;37.570;2024-03-02T11:59:38;66.97;;;39.65;;
37791;SDS011;29527;55.766;37.570;2024-03-02T12:02:03;66.88;;;38.83;;
37791;SDS011;29527;55.766;37.570;2024-03-02T12:04:29;69.47;;;41.45;;
37791;SDS011;29527;55.766;37.570;2024-03-02T12:07:00;68.28;;;40.42;;
37791;SDS011;29527;55.766;37.570;2024-03-02T12:09:26;69.88;;;40.30;;
37791;SDS011;29527;55.766;37.570;2024-03-02T12:12:08;67.72;;;39.28;;
37791;SDS011;29527;55.766;37.570;2024-03-02T12:14:34;71.22;;;40.03;;
37791;SDS011;29527;55.766;37.570;2024-03-02T12:17:00;67.65;;;39.85;;
37791;SDS011;29527;55.766;37.570;2024-03-02T12:19:26;62.03;;;38.58;;
37791;SDS011;29527;55.766;37.570;2024-03-02T12:21:52;62.85;;;38.38;;
37791;SDS011;29527;55.766;37.570;2024-03-02T12:24:17;63.42;;;37.80;;
37791;SDS011;29527;55.766;37.570;2024-03-02T12:26:43;70.20;;;41.47;;
37791;SDS011;29527;55.766;37.570;2024-03-02T12:29:08;59.95;;;36.33;;
37791;SDS011;29527;55.766;37.570;2024-03-02T12:31:34;71.07;;;39.30;;
37791;SDS011;29527;55.766;37.570;2024-03-02T12:33:59;62.67;;;36.88;;
37791;SDS011;29527;55.766;37.570;2024-03-02T12:36:24;67.18;;;38.60;;
37791;SDS011;29527;55.766;37.570;2024-03-02T12:38:52;65.40;;;40.05;;
37791;SDS011;29527;55.766;37.570;2024-03-02T12:41:18;65.38;;;38.25;;
37791;SDS011;29527;55.766;37.570;2024-03-02T12:43:43;63.45;;;40.05;;
37791;SDS011;29527;55.766;37.570;2024-03-02T12:46:08;63.83;;;38.05;;
37791;SDS011;29527;55.766;37.570;2024-03-02T12:48:34;63.65;;;36.45;;
37791;SDS011;29527;55.766;37.570;2024-03-02T12:51:00;66.57;;;37.97;;
37791;SDS011;29527;55.766;37.570;2024-03-02T12:53:26;61.92;;;36.38;;
37791;SDS011;29527;55.766;37.570;2024-03-02T12:55:52;65.07;;;34.53;;
37791;SDS011;29527;55.766;37.570;2024-03-02T12:58:22;61.70;;;36.33;;
37791;SDS011;29527;55.766;37.570;2024-03-02T13:00:47;61.20;;;36.60;;
37791;SDS011;29527;55.766;37.570;2024-03-02T13:03:13;63.40;;;36.83;;
37791;SDS011;29527;55.766;37.570;2024-03-02T13:05:39;63.25;;;37.00;;
37791;SDS011;29527;55.766;37.570;2024-03-02T13:08:05;60.45;;;36.63;;
37791;SDS011;29527;55.766;37.570;2024-03-02T13:10:32;62.22;;;34.90;;
37791;SDS011;29527;55.766;37.570;2024-03-02T13:12:57;62.85;;;34.95;;
37791;SDS011;29527;55.766;37.570;2024-03-02T13:15:22;55.08;;;32.88;;
37791;SDS011;29527;55.766;37.570;2024-03-02T13:17:48;60.72;;;34.35;;
37791;SDS011;29527;55.766;37.570;2024-03-02T13:20:14;54.88;;;33.78;;
37791;SDS011;29527;55.766;37.570;2024-03-02T13:22:39;55.05;;;34.53;;
37791;SDS011;29527;55.766;37.570;2024-03-02T13:25:05;57.20;;;33.80;;
37791;SDS011;29527;55.766;37.570;2024-03-02T13:27:30;59.83;;;33.10;;
37791;SDS011;29527;55.766;37.570;2024-03-02T13:29:57;55.83;;;31.77;;
37791;SDS011;29527;55.766;37.570;2024-03-02T13:32:22;40.97;;;21.75;;
37791;SDS011;29527;55.766;37.570;2024-03-02T13:34:49;52.17;;;27.95;;
37791;SDS011;29527;55.766;37.570;2024-03-02T13:37:14;56.05;;;32.13;;
37791;SDS011;29527;55.766;37.570;2024-03-02T13:39:39;50.20;;;30.60;;
37791;SDS011;29527;55.766;37.570;2024-03-02T13:42:09;54.45;;;29.98;;
37791;SDS011;29527;55.766;37.570;2024-03-02T13:44:35;54.47;;;29.67;;
37791;SDS011;29527;55.766;37.570;2024-03-02T13:47:01;54.20;;;31.08;;
37791;SDS011;29527;55.766;37.570;2024-03-02T13:49:27;51.50;;;28.60;;
37791;SDS011;29527;55.766;37.570;2024-03-02T13:52:00;57.20;;;31.42;;
37791;SDS011;29527;55.766;37.570;2024-03-02T13:54:28;50.58;;;27.70;;
37791;SDS011;29527;55.766;37.570;2024-03-02T13:56:53;57.60;;;30.98;;
37791;SDS011;29527;55.766;37.570;2024-03-02T13:59:18;54.22;;;31.63;;
37791;SDS011;29527;55.766;37.570;2024-03-02T14:01:44;53.88;;;31.17;;
37791;SDS011;29527;55.766;37.570;2024-03-02T14:04:09;53.90;;;29.38;;
37791;SDS011;29527;55.766;37.570;2024-03-02T14:06:35;49.75;;;30.33;;
37791;SDS011;29527;55.766;37.570;2024-03-02T14:09:00;50.22;;;30.40;;